sensor_id;sensor_type;location;lat;lon;timestamp;P1;durP1;ratioP1;P2;durP2;ratioP2
37069;SDS011;22984;48.862;9.320;2022-09-17T00:01:42;2.83;;;0.40;;
37069;SDS011;22984;48.862;9.320;2022-09-17T00:04:08;0.85;;;0.30;;
37069;SDS011;22984;48.862;9.320;2022-09-17T00:06:35;0.80;;;0.30;;
37069;SDS011;22984;48.862;9.320;2022-09-17T00:09:02;3.30;;;0.30;;
37069;SDS011;22984;48.862;9.320;2022-09-17T00:11:29;2.47;;;0.30;;
37069;SDS011;22984;48.862;9.320;2022-09-17T00:13:57;1.20;;;0.30;;
37069;SDS011;22984;48.862;9.320;2022-09-17T00:18:56;1.13;;;0.40;;
37069;SDS011;22984;48.862;9.320;2022-09-17T00:21:22;0.30;;;0.20;;
37069;SDS011;22984;48.862;9.320;2022-09-17T00:23:53;0.73;;;0.35;;
37069;SDS011;22984;48.862;9.320;2022-09-17T00:26:19;3.65;;;0.65;;
37069;SDS011;22984;48.862;9.320;2022-09-17T00:28:49;2.50;;;0.47;;
37069;SDS011;22984;48.862;9.320;2022-09-17T00:31:15;2.00;;;0.35;;
37069;SDS011;22984;48.862;9.320;2022-09-17T00:33:41;1.63;;;0.40;;
37069;SDS011;22984;48.862;9.320;2022-09-17T00:36:07;1.95;;;0.47;;
37069;SDS011;22984;48.862;9.320;2022-09-17T00:38:34;0.60;;;0.30;;
37069;SDS011;22984;48.862;9.320;2022-09-17T00:41:00;0.90;;;0.28;;
37069;SDS011;22984;48.862;9.320;2022-09-17T00:43:47;0.93;;;0.30;;
37069;SDS011;22984;48.862;9.320;2022-09-17T00:48:58;1.02;;;0.50;;
37069;SDS011;22984;48.862;9.320;2022-09-17T00:51:35;1.98;;;0.30;;
37069;SDS011;22984;48.862;9.320;2022-09-17T00:54:03;0.60;;;0.30;;
37069;SDS011;22984;48.862;9.320;2022-09-17T00:56:31;0.85;;;0.30;;
37069;SDS011;22984;48.862;9.320;2022-09-17T00:58:57;1.23;;;0.32;;
37069;SDS011;22984;48.862;9.320;2022-09-17T01:01:25;1.20;;;0.30;;
37069;SDS011;22984;48.862;9.320;2022-09-17T01:03:51;2.47;;;0.35;;
37069;SDS011;22984;48.862;9.320;2022-09-17T01:21:38;3.40;;;0.35;;
37069;SDS011;22984;48.862;9.320;2022-09-17T01:31:50;2.57;;;0.50;;
37069;SDS011;22984;48.862;9.320;2022-09-17T01:34:24;1.50;;;0.40;;
37069;SDS011;22984;48.862;9.320;2022-09-17T01:44:27;0.90;;;0.60;;
37069;SDS011;22984;48.862;9.320;2022-09-17T01:46:56;1.90;;;0.50;;
37069;SDS011;22984;48.862;9.320;2022-09-17T01:49:26;1.15;;;0.45;;
37069;SDS011;22984;48.862;9.320;2022-09-17T01:51:52;1.90;;;0.40;;
37069;SDS011;22984;48.862;9.320;2022-09-17T01:54:22;3.75;;;0.98;;
37069;SDS011;22984;48.862;9.320;2022-09-17T01:57:05;3.83;;;0.80;;
37069;SDS011;22984;48.862;9.320;2022-09-17T01:59:43;2.63;;;0.60;;
37069;SDS011;22984;48.862;9.320;2022-09-17T02:02:21;5.35;;;1.10;;
37069;SDS011;22984;48.862;9.320;2022-09-17T02:04:58;1.67;;;0.55;;
37069;SDS011;22984;48.862;9.320;2022-09-17T02:07:26;2.20;;;0.60;;
37069;SDS011;22984;48.862;9.320;2022-09-17T02:09:54;1.45;;;0.50;;
37069;SDS011;22984;48.862;9.320;2022-09-17T02:12:25;2.93;;;0.70;;
37069;SDS011;22984;48.862;9.320;2022-09-17T02:14:53;3.58;;;0.90;;
37069;SDS011;22984;48.862;9.320;2022-09-17T02:17:31;3.22;;;0.90;;
37069;SDS011;22984;48.862;9.320;2022-09-17T02:19:59;1.98;;;0.80;;
37069;SDS011;22984;48.862;9.320;2022-09-17T02:22:31;2.10;;;0.80;;
37069;SDS011;22984;48.862;9.320;2022-09-17T02:25:07;1.75;;;0.50;;
37069;SDS011;22984;48.862;9.320;2022-09-17T02:30:01;3.40;;;1.17;;
37069;SDS011;22984;48.862;9.320;2022-09-17T02:32:27;1.08;;;0.68;;
37069;SDS011;22984;48.862;9.320;2022-09-17T02:34:53;3.15;;;0.98;;
37069;SDS011;22984;48.862;9.320;2022-09-17T02:37:19;1.80;;;0.82;;
37069;SDS011;22984;48.862;9.320;2022-09-17T02:39:45;3.57;;;1.40;;
37069;SDS011;22984;48.862;9.320;2022-09-17T02:42:19;2.42;;;0.90;;
37069;SDS011;22984;48.862;9.320;2022-09-17T02:44:56;4.43;;;1.00;;
37069;SDS011;22984;48.862;9.320;2022-09-17T02:49:58;1.00;;;0.60;;
37069;SDS011;22984;48.862;9.320;2022-09-17T02:59:51;2.55;;;0.82;;
37069;SDS011;22984;48.862;9.320;2022-09-17T03:02:21;2.50;;;0.80;;
37069;SDS011;22984;48.862;9.320;2022-09-17T03:04:48;5.22;;;1.10;;
37069;SDS011;22984;48.862;9.320;2022-09-17T03:07:15;4.97;;;0.60;;
37069;SDS011;22984;48.862;9.320;2022-09-17T03:09:42;5.68;;;0.60;;
37069;SDS011;22984;48.862;9.320;2022-09-17T03:12:08;2.22;;;0.60;;
37069;SDS011;22984;48.862;9.320;2022-09-17T03:14:35;4.20;;;0.50;;
37069;SDS011;22984;48.862;9.320;2022-09-17T03:17:01;2.47;;;0.65;;
37069;SDS011;22984;48.862;9.320;2022-09-17T03:19:27;3.38;;;0.57;;
37069;SDS011;22984;48.862;9.320;2022-09-17T03:21:53;2.33;;;1.10;;
37069;SDS011;22984;48.862;9.320;2022-09-17T03:24:19;3.85;;;0.65;;
37069;SDS011;22984;48.862;9.320;2022-09-17T03:26:45;2.20;;;0.50;;
37069;SDS011;22984;48.862;9.320;2022-09-17T03:29:13;5.80;;;0.80;;
37069;SDS011;22984;48.862;9.320;2022-09-17T03:31:39;4.47;;;0.60;;
37069;SDS011;22984;48.862;9.320;2022-09-17T03:34:05;3.05;;;0.98;;
37069;SDS011;22984;48.862;9.320;2022-09-17T03:36:32;5.90;;;1.10;;
37069;SDS011;22984;48.862;9.320;2022-09-17T03:38:58;3.03;;;0.80;;
37069;SDS011;22984;48.862;9.320;2022-09-17T03:41:24;5.50;;;1.20;;
37069;SDS011;22984;48.862;9.320;2022-09-17T03:43:50;4.93;;;0.88;;
37069;SDS011;22984;48.862;9.320;2022-09-17T03:46:17;3.78;;;0.70;;
37069;SDS011;22984;48.862;9.320;2022-09-17T03:48:43;3.10;;;0.70;;
37069;SDS011;22984;48.862;9.320;2022-09-17T03:51:09;3.22;;;1.02;;
37069;SDS011;22984;48.862;9.320;2022-09-17T03:53:35;4.35;;;0.93;;
37069;SDS011;22984;48.862;9.320;2022-09-17T03:56:02;2.47;;;0.87;;
37069;SDS011;22984;48.862;9.320;2022-09-17T03:58:28;4.50;;;1.30;;
37069;SDS011;22984;48.862;9.320;2022-09-17T04:00:55;2.90;;;1.20;;
37069;SDS011;22984;48.862;9.320;2022-09-17T04:03:28;6.93;;;0.80;;
37069;SDS011;22984;48.862;9.320;2022-09-17T04:05:54;3.83;;;0.77;;
37069;SDS011;22984;48.862;9.320;2022-09-17T04:08:20;5.03;;;0.90;;
37069;SDS011;22984;48.862;9.320;2022-09-17T04:10:46;4.45;;;0.93;;
37069;SDS011;22984;48.862;9.320;2022-09-17T04:13:13;10.02;;;0.68;;
37069;SDS011;22984;48.862;9.320;2022-09-17T04:15:40;5.18;;;0.90;;
37069;SDS011;22984;48.862;9.320;2022-09-17T04:18:06;2.65;;;0.65;;
37069;SDS011;22984;48.862;9.320;2022-09-17T04:20:32;4.33;;;1.20;;
37069;SDS011;22984;48.862;9.320;2022-09-17T04:22:58;4.45;;;0.85;;
37069;SDS011;22984;48.862;9.320;2022-09-17T04:25:24;4.20;;;0.75;;
37069;SDS011;22984;48.862;9.320;2022-09-17T04:27:50;2.92;;;0.85;;
37069;SDS011;22984;48.862;9.320;2022-09-17T04:30:16;3.40;;;1.00;;
37069;SDS011;22984;48.862;9.320;2022-09-17T04:32:43;4.72;;;0.85;;
37069;SDS011;22984;48.862;9.320;2022-09-17T04:35:09;5.07;;;1.20;;
37069;SDS011;22984;48.862;9.320;2022-09-17T04:37:35;5.07;;;0.88;;
37069;SDS011;22984;48.862;9.320;2022-09-17T04:40:02;5.03;;;0.55;;
37069;SDS011;22984;48.862;9.320;2022-09-17T04:42:28;3.65;;;0.90;;
37069;SDS011;22984;48.862;9.320;2022-09-17T04:44:54;2.78;;;0.77;;
37069;SDS011;22984;48.862;9.320;2022-09-17T04:47:20;4.38;;;0.73;;
37069;SDS011;22984;48.862;9.320;2022-09-17T04:49:46;5.07;;;0.90;;
37069;SDS011;22984;48.862;9.320;2022-09-17T04:52:12;3.85;;;1.00;;
37069;SDS011;22984;48.862;9.320;2022-09-17T04:54:39;3.70;;;1.15;;
37069;SDS011;22984;48.862;9.320;2022-09-17T04:57:05;7.10;;;1.10;;
37069;SDS011;22984;48.862;9.320;2022-09-17T04:59:31;6.90;;;1.35;;
37069;SDS011;22984;48.862;9.320;2022-09-17T05:01:57;3.35;;;1.05;;
37069;SDS011;22984;48.862;9.320;2022-09-17T05:04:23;4.90;;;1.00;;
37069;SDS011;22984;48.862;9.320;2022-09-17T05:06:49;4.72;;;0.98;;
37069;SDS011;22984;48.862;9.320;2022-09-17T05:09:15;3.60;;;1.08;;
37069;SDS011;22984;48.862;9.320;2022-09-17T05:11:41;4.90;;;1.40;;
37069;SDS011;22984;48.862;9.320;2022-09-17T05:14:07;5.47;;;1.40;;
37069;SDS011;22984;48.862;9.320;2022-09-17T05:16:33;4.30;;;1.00;;
37069;SDS011;22984;48.862;9.320;2022-09-17T05:18:59;3.53;;;1.20;;
37069;SDS011;22984;48.862;9.320;2022-09-17T05:21:25;4.97;;;0.88;;
37069;SDS011;22984;48.862;9.320;2022-09-17T05:23:51;4.32;;;1.27;;
37069;SDS011;22984;48.862;9.320;2022-09-17T05:26:17;5.73;;;1.10;;
37069;SDS011;22984;48.862;9.320;2022-09-17T05:28:43;5.35;;;1.00;;
37069;SDS011;22984;48.862;9.320;2022-09-17T05:31:10;2.63;;;0.98;;
37069;SDS011;22984;48.862;9.320;2022-09-17T05:33:36;4.82;;;1.02;;
37069;SDS011;22984;48.862;9.320;2022-09-17T05:36:02;3.42;;;1.20;;
37069;SDS011;22984;48.862;9.320;2022-09-17T05:38:28;4.25;;;1.15;;
37069;SDS011;22984;48.862;9.320;2022-09-17T05:40:54;3.80;;;1.20;;
37069;SDS011;22984;48.862;9.320;2022-09-17T05:43:20;5.80;;;1.15;;
37069;SDS011;22984;48.862;9.320;2022-09-17T05:45:47;5.57;;;1.58;;
37069;SDS011;22984;48.862;9.320;2022-09-17T05:48:14;6.03;;;1.00;;
37069;SDS011;22984;48.862;9.320;2022-09-17T05:50:40;3.80;;;1.20;;
37069;SDS011;22984;48.862;9.320;2022-09-17T05:53:07;5.90;;;1.23;;
37069;SDS011;22984;48.862;9.320;2022-09-17T05:55:34;7.38;;;1.70;;
37069;SDS011;22984;48.862;9.320;2022-09-17T05:58:07;8.90;;;1.17;;
37069;SDS011;22984;48.862;9.320;2022-09-17T06:00:33;3.40;;;1.30;;
37069;SDS011;22984;48.862;9.320;2022-09-17T06:02:59;6.40;;;1.98;;
37069;SDS011;22984;48.862;9.320;2022-09-17T06:05:25;5.20;;;1.33;;
37069;SDS011;22984;48.862;9.320;2022-09-17T06:07:51;4.78;;;1.30;;
37069;SDS011;22984;48.862;9.320;2022-09-17T06:10:17;5.47;;;1.38;;
37069;SDS011;22984;48.862;9.320;2022-09-17T06:12:43;4.35;;;1.17;;
37069;SDS011;22984;48.862;9.320;2022-09-17T06:15:09;5.18;;;1.20;;
37069;SDS011;22984;48.862;9.320;2022-09-17T06:17:39;7.25;;;1.27;;
37069;SDS011;22984;48.862;9.320;2022-09-17T06:20:05;4.50;;;1.00;;
37069;SDS011;22984;48.862;9.320;2022-09-17T06:22:31;5.35;;;1.00;;
37069;SDS011;22984;48.862;9.320;2022-09-17T06:24:57;6.63;;;1.38;;
37069;SDS011;22984;48.862;9.320;2022-09-17T06:27:32;9.53;;;1.83;;
37069;SDS011;22984;48.862;9.320;2022-09-17T06:29:59;7.27;;;1.20;;
37069;SDS011;22984;48.862;9.320;2022-09-17T06:32:25;3.75;;;1.05;;
37069;SDS011;22984;48.862;9.320;2022-09-17T06:34:51;3.58;;;1.48;;
37069;SDS011;22984;48.862;9.320;2022-09-17T06:37:19;5.97;;;1.92;;
37069;SDS011;22984;48.862;9.320;2022-09-17T06:39:45;4.68;;;1.20;;
37069;SDS011;22984;48.862;9.320;2022-09-17T06:42:11;4.05;;;1.23;;
37069;SDS011;22984;48.862;9.320;2022-09-17T06:44:37;4.18;;;1.20;;
37069;SDS011;22984;48.862;9.320;2022-09-17T06:47:04;2.72;;;1.35;;
37069;SDS011;22984;48.862;9.320;2022-09-17T06:49:31;4.32;;;0.90;;
37069;SDS011;22984;48.862;9.320;2022-09-17T06:51:57;3.03;;;1.03;;
37069;SDS011;22984;48.862;9.320;2022-09-17T06:54:23;5.60;;;1.20;;
37069;SDS011;22984;48.862;9.320;2022-09-17T06:56:49;6.40;;;1.73;;
37069;SDS011;22984;48.862;9.320;2022-09-17T06:59:15;4.88;;;1.13;;
37069;SDS011;22984;48.862;9.320;2022-09-17T07:01:42;5.38;;;1.10;;
37069;SDS011;22984;48.862;9.320;2022-09-17T07:04:08;6.07;;;1.30;;
37069;SDS011;22984;48.862;9.320;2022-09-17T07:06:34;4.35;;;1.10;;
37069;SDS011;22984;48.862;9.320;2022-09-17T07:09:00;4.13;;;1.38;;
37069;SDS011;22984;48.862;9.320;2022-09-17T07:11:28;6.00;;;1.70;;
37069;SDS011;22984;48.862;9.320;2022-09-17T07:13:55;3.63;;;1.40;;
37069;SDS011;22984;48.862;9.320;2022-09-17T07:16:21;4.53;;;1.15;;
37069;SDS011;22984;48.862;9.320;2022-09-17T07:18:48;5.25;;;1.23;;
37069;SDS011;22984;48.862;9.320;2022-09-17T07:21:14;4.70;;;1.27;;
37069;SDS011;22984;48.862;9.320;2022-09-17T07:23:40;3.70;;;1.10;;
37069;SDS011;22984;48.862;9.320;2022-09-17T07:26:08;8.93;;;1.80;;
37069;SDS011;22984;48.862;9.320;2022-09-17T07:28:37;7.32;;;1.00;;
37069;SDS011;22984;48.862;9.320;2022-09-17T07:31:03;5.53;;;1.85;;
37069;SDS011;22984;48.862;9.320;2022-09-17T07:33:30;8.20;;;2.13;;
37069;SDS011;22984;48.862;9.320;2022-09-17T07:35:58;5.32;;;1.65;;
37069;SDS011;22984;48.862;9.320;2022-09-17T07:38:24;7.10;;;1.83;;
37069;SDS011;22984;48.862;9.320;2022-09-17T07:40:57;5.90;;;1.67;;
37069;SDS011;22984;48.862;9.320;2022-09-17T07:43:24;5.38;;;1.70;;
37069;SDS011;22984;48.862;9.320;2022-09-17T07:45:50;4.10;;;2.07;;
37069;SDS011;22984;48.862;9.320;2022-09-17T07:48:17;6.22;;;2.03;;
37069;SDS011;22984;48.862;9.320;2022-09-17T07:50:43;4.78;;;2.10;;
37069;SDS011;22984;48.862;9.320;2022-09-17T07:53:09;5.43;;;2.05;;
37069;SDS011;22984;48.862;9.320;2022-09-17T07:55:35;7.35;;;2.03;;
37069;SDS011;22984;48.862;9.320;2022-09-17T07:58:01;3.75;;;1.83;;
37069;SDS011;22984;48.862;9.320;2022-09-17T08:00:27;6.45;;;2.42;;
37069;SDS011;22984;48.862;9.320;2022-09-17T08:02:56;4.55;;;1.92;;
37069;SDS011;22984;48.862;9.320;2022-09-17T08:05:23;4.63;;;1.60;;
37069;SDS011;22984;48.862;9.320;2022-09-17T08:07:50;4.68;;;1.70;;
37069;SDS011;22984;48.862;9.320;2022-09-17T08:10:16;4.25;;;1.30;;
37069;SDS011;22984;48.862;9.320;2022-09-17T08:12:47;4.07;;;1.50;;
37069;SDS011;22984;48.862;9.320;2022-09-17T08:15:14;5.25;;;1.88;;
37069;SDS011;22984;48.862;9.320;2022-09-17T08:17:46;5.05;;;1.95;;
37069;SDS011;22984;48.862;9.320;2022-09-17T08:20:13;5.65;;;2.00;;
37069;SDS011;22984;48.862;9.320;2022-09-17T08:22:39;5.00;;;1.83;;
37069;SDS011;22984;48.862;9.320;2022-09-17T08:25:06;4.10;;;2.08;;
37069;SDS011;22984;48.862;9.320;2022-09-17T08:27:32;4.93;;;1.50;;
37069;SDS011;22984;48.862;9.320;2022-09-17T08:29:59;4.57;;;1.75;;
37069;SDS011;22984;48.862;9.320;2022-09-17T08:32:28;3.75;;;1.70;;
37069;SDS011;22984;48.862;9.320;2022-09-17T08:34:54;4.50;;;1.40;;
37069;SDS011;22984;48.862;9.320;2022-09-17T08:37:21;7.82;;;1.80;;
37069;SDS011;22984;48.862;9.320;2022-09-17T08:39:47;6.25;;;1.90;;
37069;SDS011;22984;48.862;9.320;2022-09-17T08:42:31;7.70;;;1.95;;
37069;SDS011;22984;48.862;9.320;2022-09-17T08:45:04;4.93;;;1.67;;
37069;SDS011;22984;48.862;9.320;2022-09-17T08:47:32;7.03;;;1.70;;
37069;SDS011;22984;48.862;9.320;2022-09-17T08:50:02;3.60;;;1.50;;
37069;SDS011;22984;48.862;9.320;2022-09-17T09:00:13;10.50;;;2.72;;
37069;SDS011;22984;48.862;9.320;2022-09-17T09:03:06;6.63;;;1.95;;
37069;SDS011;22984;48.862;9.320;2022-09-17T09:05:47;8.02;;;1.83;;
37069;SDS011;22984;48.862;9.320;2022-09-17T09:08:37;5.15;;;1.70;;
37069;SDS011;22984;48.862;9.320;2022-09-17T09:11:06;6.43;;;1.58;;
37069;SDS011;22984;48.862;9.320;2022-09-17T09:13:45;8.18;;;2.05;;
37069;SDS011;22984;48.862;9.320;2022-09-17T09:16:14;9.20;;;1.77;;
37069;SDS011;22984;48.862;9.320;2022-09-17T09:18:47;5.70;;;1.90;;
37069;SDS011;22984;48.862;9.320;2022-09-17T09:21:25;10.25;;;1.80;;
37069;SDS011;22984;48.862;9.320;2022-09-17T09:24:07;6.38;;;1.77;;
37069;SDS011;22984;48.862;9.320;2022-09-17T09:26:46;9.23;;;1.67;;
37069;SDS011;22984;48.862;9.320;2022-09-17T09:29:19;6.85;;;1.30;;
37069;SDS011;22984;48.862;9.320;2022-09-17T09:34:19;7.38;;;1.50;;
37069;SDS011;22984;48.862;9.320;2022-09-17T09:36:45;8.23;;;1.48;;
37069;SDS011;22984;48.862;9.320;2022-09-17T09:41:54;7.05;;;1.60;;
37069;SDS011;22984;48.862;9.320;2022-09-17T09:44:24;7.10;;;1.95;;
37069;SDS011;22984;48.862;9.320;2022-09-17T09:57:34;6.25;;;1.88;;
37069;SDS011;22984;48.862;9.320;2022-09-17T10:00:22;9.20;;;1.40;;
37069;SDS011;22984;48.862;9.320;2022-09-17T10:03:15;7.10;;;1.30;;
37069;SDS011;22984;48.862;9.320;2022-09-17T10:05:39;8.80;;;1.92;;
37069;SDS011;22984;48.862;9.320;2022-09-17T10:08:11;7.32;;;1.75;;
37069;SDS011;22984;48.862;9.320;2022-09-17T10:10:54;6.68;;;1.38;;
37069;SDS011;22984;48.862;9.320;2022-09-17T10:13:20;5.38;;;1.20;;
37069;SDS011;22984;48.862;9.320;2022-09-17T10:15:52;7.65;;;1.30;;
37069;SDS011;22984;48.862;9.320;2022-09-17T10:18:19;4.10;;;1.08;;
37069;SDS011;22984;48.862;9.320;2022-09-17T10:23:21;5.10;;;1.23;;
37069;SDS011;22984;48.862;9.320;2022-09-17T10:25:48;4.20;;;1.23;;
37069;SDS011;22984;48.862;9.320;2022-09-17T10:31:04;5.07;;;1.15;;
37069;SDS011;22984;48.862;9.320;2022-09-17T10:33:34;6.22;;;1.13;;
37069;SDS011;22984;48.862;9.320;2022-09-17T10:38:31;6.22;;;1.17;;
37069;SDS011;22984;48.862;9.320;2022-09-17T10:43:39;6.55;;;1.20;;
37069;SDS011;22984;48.862;9.320;2022-09-17T10:46:07;3.90;;;1.30;;
37069;SDS011;22984;48.862;9.320;2022-09-17T10:48:36;6.03;;;1.30;;
37069;SDS011;22984;48.862;9.320;2022-09-17T10:51:03;5.07;;;1.10;;
37069;SDS011;22984;48.862;9.320;2022-09-17T10:53:32;2.08;;;0.90;;
37069;SDS011;22984;48.862;9.320;2022-09-17T10:56:21;5.17;;;1.00;;
37069;SDS011;22984;48.862;9.320;2022-09-17T10:58:54;7.88;;;1.65;;
37069;SDS011;22984;48.862;9.320;2022-09-17T11:09:22;2.78;;;0.82;;
37069;SDS011;22984;48.862;9.320;2022-09-17T11:30:18;2.80;;;0.63;;
37069;SDS011;22984;48.862;9.320;2022-09-17T11:33:01;3.65;;;1.02;;
37069;SDS011;22984;48.862;9.320;2022-09-17T11:35:44;3.97;;;0.70;;
37069;SDS011;22984;48.862;9.320;2022-09-17T11:38:28;2.78;;;0.60;;
37069;SDS011;22984;48.862;9.320;2022-09-17T11:41:09;3.17;;;0.90;;
37069;SDS011;22984;48.862;9.320;2022-09-17T11:43:38;2.97;;;0.60;;
37069;SDS011;22984;48.862;9.320;2022-09-17T11:46:11;4.78;;;0.77;;
37069;SDS011;22984;48.862;9.320;2022-09-17T11:51:53;6.28;;;1.10;;
37069;SDS011;22984;48.862;9.320;2022-09-17T11:56:45;5.72;;;1.33;;
37069;SDS011;22984;48.862;9.320;2022-09-17T11:59:17;4.97;;;1.50;;
37069;SDS011;22984;48.862;9.320;2022-09-17T12:01:49;5.47;;;0.88;;
37069;SDS011;22984;48.862;9.320;2022-09-17T12:04:21;5.88;;;0.82;;
37069;SDS011;22984;48.862;9.320;2022-09-17T12:06:55;1.67;;;0.67;;
37069;SDS011;22984;48.862;9.320;2022-09-17T12:09:25;6.18;;;0.95;;
37069;SDS011;22984;48.862;9.320;2022-09-17T12:17:00;6.00;;;1.02;;
37069;SDS011;22984;48.862;9.320;2022-09-17T12:19:32;3.20;;;0.70;;
37069;SDS011;22984;48.862;9.320;2022-09-17T12:22:04;2.67;;;1.02;;
37069;SDS011;22984;48.862;9.320;2022-09-17T12:24:33;1.88;;;0.63;;
37069;SDS011;22984;48.862;9.320;2022-09-17T12:53:31;2.40;;;0.70;;
37069;SDS011;22984;48.862;9.320;2022-09-17T12:56:11;8.32;;;1.27;;
37069;SDS011;22984;48.862;9.320;2022-09-17T13:01:50;2.03;;;0.40;;
37069;SDS011;22984;48.862;9.320;2022-09-17T13:04:16;1.27;;;0.68;;
37069;SDS011;22984;48.862;9.320;2022-09-17T13:09:36;0.90;;;0.30;;
37069;SDS011;22984;48.862;9.320;2022-09-17T13:15:00;0.88;;;0.43;;
37069;SDS011;22984;48.862;9.320;2022-09-17T13:20:15;1.33;;;0.38;;
37069;SDS011;22984;48.862;9.320;2022-09-17T13:22:46;3.00;;;0.38;;
37069;SDS011;22984;48.862;9.320;2022-09-17T13:25:13;2.60;;;0.30;;
37069;SDS011;22984;48.862;9.320;2022-09-17T13:27:40;0.73;;;0.20;;
37069;SDS011;22984;48.862;9.320;2022-09-17T13:30:07;0.82;;;0.30;;
37069;SDS011;22984;48.862;9.320;2022-09-17T13:37:37;1.23;;;0.50;;
37069;SDS011;22984;48.862;9.320;2022-09-17T13:40:04;1.00;;;0.35;;
37069;SDS011;22984;48.862;9.320;2022-09-17T13:42:52;0.60;;;0.30;;
37069;SDS011;22984;48.862;9.320;2022-09-17T13:45:19;1.87;;;0.30;;
37069;SDS011;22984;48.862;9.320;2022-09-17T13:47:50;1.80;;;0.60;;
37069;SDS011;22984;48.862;9.320;2022-09-17T13:52:53;1.80;;;0.30;;
37069;SDS011;22984;48.862;9.320;2022-09-17T13:55:29;2.63;;;0.35;;
37069;SDS011;22984;48.862;9.320;2022-09-17T13:57:55;0.55;;;0.20;;
37069;SDS011;22984;48.862;9.320;2022-09-17T14:05:51;0.70;;;0.30;;
37069;SDS011;22984;48.862;9.320;2022-09-17T14:08:26;1.50;;;0.80;;
37069;SDS011;22984;48.862;9.320;2022-09-17T14:10:53;2.08;;;0.40;;
37069;SDS011;22984;48.862;9.320;2022-09-17T14:13:27;1.45;;;0.40;;
37069;SDS011;22984;48.862;9.320;2022-09-17T14:15:54;3.55;;;0.50;;
37069;SDS011;22984;48.862;9.320;2022-09-17T14:18:41;3.80;;;0.30;;
37069;SDS011;22984;48.862;9.320;2022-09-17T14:23:34;3.30;;;0.90;;
37069;SDS011;22984;48.862;9.320;2022-09-17T14:26:07;3.47;;;0.57;;
37069;SDS011;22984;48.862;9.320;2022-09-17T14:28:41;1.58;;;0.43;;
37069;SDS011;22984;48.862;9.320;2022-09-17T14:31:12;1.48;;;0.40;;
37069;SDS011;22984;48.862;9.320;2022-09-17T14:33:41;2.85;;;0.40;;
37069;SDS011;22984;48.862;9.320;2022-09-17T14:36:09;3.55;;;0.60;;
37069;SDS011;22984;48.862;9.320;2022-09-17T14:38:40;2.25;;;0.38;;
37069;SDS011;22984;48.862;9.320;2022-09-17T14:43:42;0.90;;;0.30;;
37069;SDS011;22984;48.862;9.320;2022-09-17T14:46:17;1.00;;;0.60;;
37069;SDS011;22984;48.862;9.320;2022-09-17T14:48:44;3.05;;;0.60;;
37069;SDS011;22984;48.862;9.320;2022-09-17T14:53:46;2.23;;;0.87;;
37069;SDS011;22984;48.862;9.320;2022-09-17T14:56:21;1.63;;;0.57;;
37069;SDS011;22984;48.862;9.320;2022-09-17T14:58:51;2.80;;;0.40;;
37069;SDS011;22984;48.862;9.320;2022-09-17T15:01:21;2.45;;;0.60;;
37069;SDS011;22984;48.862;9.320;2022-09-17T15:03:48;1.63;;;0.50;;
37069;SDS011;22984;48.862;9.320;2022-09-17T15:06:23;1.43;;;0.43;;
37069;SDS011;22984;48.862;9.320;2022-09-17T15:08:49;3.10;;;0.40;;
37069;SDS011;22984;48.862;9.320;2022-09-17T15:11:15;1.63;;;0.50;;
37069;SDS011;22984;48.862;9.320;2022-09-17T15:16:24;2.10;;;0.60;;
37069;SDS011;22984;48.862;9.320;2022-09-17T15:23:58;1.45;;;0.50;;
37069;SDS011;22984;48.862;9.320;2022-09-17T15:26:27;1.85;;;0.70;;
37069;SDS011;22984;48.862;9.320;2022-09-17T15:28:53;1.92;;;0.47;;
37069;SDS011;22984;48.862;9.320;2022-09-17T15:31:21;2.97;;;0.90;;
37069;SDS011;22984;48.862;9.320;2022-09-17T15:33:47;2.60;;;0.57;;
37069;SDS011;22984;48.862;9.320;2022-09-17T15:36:20;2.65;;;1.00;;
37069;SDS011;22984;48.862;9.320;2022-09-17T15:38:47;2.20;;;0.70;;
37069;SDS011;22984;48.862;9.320;2022-09-17T15:43:45;1.27;;;0.60;;
37069;SDS011;22984;48.862;9.320;2022-09-17T15:48:45;3.45;;;0.75;;
37069;SDS011;22984;48.862;9.320;2022-09-17T15:51:24;2.95;;;0.70;;
37069;SDS011;22984;48.862;9.320;2022-09-17T15:53:51;4.88;;;0.88;;
37069;SDS011;22984;48.862;9.320;2022-09-17T15:56:18;6.82;;;0.80;;
37069;SDS011;22984;48.862;9.320;2022-09-17T16:11:15;5.60;;;1.33;;
37069;SDS011;22984;48.862;9.320;2022-09-17T16:13:41;5.33;;;1.13;;
37069;SDS011;22984;48.862;9.320;2022-09-17T16:16:31;3.50;;;0.75;;
37069;SDS011;22984;48.862;9.320;2022-09-17T16:18:53;0.93;;;0.77;;
37069;SDS011;22984;48.862;9.320;2022-09-17T16:21:19;5.43;;;0.75;;
37069;SDS011;22984;48.862;9.320;2022-09-17T16:23:45;2.75;;;0.70;;
37069;SDS011;22984;48.862;9.320;2022-09-17T16:26:16;3.50;;;1.13;;
37069;SDS011;22984;48.862;9.320;2022-09-17T16:28:43;2.47;;;0.73;;
37069;SDS011;22984;48.862;9.320;2022-09-17T16:31:11;1.63;;;0.53;;
37069;SDS011;22984;48.862;9.320;2022-09-17T16:33:37;3.90;;;0.70;;
37069;SDS011;22984;48.862;9.320;2022-09-17T16:36:03;1.73;;;0.90;;
37069;SDS011;22984;48.862;9.320;2022-09-17T16:38:30;1.70;;;0.38;;
37069;SDS011;22984;48.862;9.320;2022-09-17T16:40:56;2.53;;;0.70;;
37069;SDS011;22984;48.862;9.320;2022-09-17T16:43:22;2.08;;;0.80;;
37069;SDS011;22984;48.862;9.320;2022-09-17T16:46:01;2.60;;;0.60;;
37069;SDS011;22984;48.862;9.320;2022-09-17T16:48:27;4.80;;;1.00;;
37069;SDS011;22984;48.862;9.320;2022-09-17T16:50:53;1.13;;;0.60;;
37069;SDS011;22984;48.862;9.320;2022-09-17T16:53:19;3.77;;;0.97;;
37069;SDS011;22984;48.862;9.320;2022-09-17T16:55:45;2.77;;;0.73;;
37069;SDS011;22984;48.862;9.320;2022-09-17T16:58:11;1.60;;;0.50;;
37069;SDS011;22984;48.862;9.320;2022-09-17T17:00:40;2.42;;;0.80;;
37069;SDS011;22984;48.862;9.320;2022-09-17T17:03:06;4.57;;;0.90;;
37069;SDS011;22984;48.862;9.320;2022-09-17T17:05:34;2.40;;;0.45;;
37069;SDS011;22984;48.862;9.320;2022-09-17T17:08:01;4.20;;;0.90;;
37069;SDS011;22984;48.862;9.320;2022-09-17T17:10:27;4.35;;;1.15;;
37069;SDS011;22984;48.862;9.320;2022-09-17T17:12:53;2.00;;;0.80;;
37069;SDS011;22984;48.862;9.320;2022-09-17T17:15:19;8.13;;;1.48;;
37069;SDS011;22984;48.862;9.320;2022-09-17T17:17:46;4.40;;;1.27;;
37069;SDS011;22984;48.862;9.320;2022-09-17T17:20:12;3.07;;;1.10;;
37069;SDS011;22984;48.862;9.320;2022-09-17T17:22:39;0.80;;;0.30;;
37069;SDS011;22984;48.862;9.320;2022-09-17T17:25:07;2.90;;;0.45;;
37069;SDS011;22984;48.862;9.320;2022-09-17T17:27:33;2.30;;;0.73;;
37069;SDS011;22984;48.862;9.320;2022-09-17T17:29:59;2.88;;;0.80;;
37069;SDS011;22984;48.862;9.320;2022-09-17T17:32:29;5.20;;;0.88;;
37069;SDS011;22984;48.862;9.320;2022-09-17T17:34:55;3.78;;;0.98;;
37069;SDS011;22984;48.862;9.320;2022-09-17T17:37:22;4.03;;;0.80;;
37069;SDS011;22984;48.862;9.320;2022-09-17T17:39:48;5.82;;;1.10;;
37069;SDS011;22984;48.862;9.320;2022-09-17T17:42:14;3.30;;;1.30;;
37069;SDS011;22984;48.862;9.320;2022-09-17T17:44:40;4.13;;;0.85;;
37069;SDS011;22984;48.862;9.320;2022-09-17T17:47:06;6.60;;;0.98;;
37069;SDS011;22984;48.862;9.320;2022-09-17T17:49:32;4.60;;;1.05;;
37069;SDS011;22984;48.862;9.320;2022-09-17T17:51:58;2.28;;;0.70;;
37069;SDS011;22984;48.862;9.320;2022-09-17T17:54:25;4.20;;;1.30;;
37069;SDS011;22984;48.862;9.320;2022-09-17T17:56:52;3.78;;;1.30;;
37069;SDS011;22984;48.862;9.320;2022-09-17T17:59:18;2.08;;;1.08;;
37069;SDS011;22984;48.862;9.320;2022-09-17T18:01:44;2.58;;;1.00;;
37069;SDS011;22984;48.862;9.320;2022-09-17T18:04:10;8.40;;;1.23;;
37069;SDS011;22984;48.862;9.320;2022-09-17T18:06:36;2.53;;;1.45;;
37069;SDS011;22984;48.862;9.320;2022-09-17T18:09:03;3.33;;;0.80;;
37069;SDS011;22984;48.862;9.320;2022-09-17T18:11:30;1.83;;;1.30;;
37069;SDS011;22984;48.862;9.320;2022-09-17T18:13:56;3.42;;;0.95;;
37069;SDS011;22984;48.862;9.320;2022-09-17T18:16:24;2.88;;;1.30;;
37069;SDS011;22984;48.862;9.320;2022-09-17T18:18:50;3.63;;;1.00;;
37069;SDS011;22984;48.862;9.320;2022-09-17T18:21:18;4.32;;;1.05;;